createdAt,value
2017-06-20T00:00:45.100Z,0
2017-06-20T00:01:57.367Z,0
2017-06-20T00:03:09.961Z,0
2017-06-20T00:04:22.519Z,0
2017-06-20T00:05:35.062Z,0
2017-06-20T00:06:47.284Z,0
2017-06-20T00:07:59.829Z,0
2017-06-20T00:09:12.375Z,0
2017-06-20T00:10:24.593Z,0
2017-06-20T00:11:36.864Z,0
2017-06-20T00:12:49.108Z,0
2017-06-20T00:14:01.648Z,0
2017-06-20T00:15:13.894Z,0
2017-06-20T00:16:26.466Z,0
2017-06-20T00:17:38.374Z,0
2017-06-20T00:18:50.916Z,0
2017-06-20T00:20:03.451Z,0
2017-06-20T00:21:15.681Z,0
2017-06-20T00:22:28.219Z,0
2017-06-20T00:23:40.448Z,0
2017-06-20T00:24:52.975Z,0
2017-06-20T00:26:05.218Z,0
2017-06-20T00:27:17.461Z,0
2017-06-20T00:28:29.999Z,0
2017-06-20T00:29:42.527Z,0
2017-06-20T00:30:55.094Z,0
2017-06-20T00:32:07.626Z,0
2017-06-20T00:33:20.220Z,0
2017-06-20T00:34:32.740Z,0
2017-06-20T00:35:44.960Z,0
2017-06-20T00:36:57.481Z,0
2017-06-20T00:38:10.046Z,0
2017-06-20T00:39:22.587Z,0
2017-06-20T00:40:34.838Z,0
2017-06-20T00:41:47.365Z,0
2017-06-20T00:42:59.882Z,0
2017-06-20T00:44:12.432Z,0
2017-06-20T00:45:24.999Z,0
2017-06-20T00:46:37.225Z,0
2017-06-20T00:47:49.492Z,0
2017-06-20T00:49:02.019Z,0
2017-06-20T00:50:14.536Z,0
2017-06-20T00:51:27.073Z,0
2017-06-20T00:52:39.603Z,0
2017-06-20T00:53:52.125Z,0
2017-06-20T00:55:04.338Z,0
2017-06-20T00:56:16.842Z,0
2017-06-20T00:57:29.365Z,0
2017-06-20T00:58:40.981Z,0
2017-06-20T00:59:53.500Z,0
2017-06-20T01:01:05.727Z,0
2017-06-20T01:02:17.671Z,0
2017-06-20T01:03:30.214Z,0
2017-06-20T01:04:42.437Z,0
2017-06-20T01:05:54.614Z,0
2017-06-20T01:07:07.177Z,0
2017-06-20T01:08:19.672Z,0
2017-06-20T01:09:32.209Z,0
2017-06-20T01:10:44.442Z,0
2017-06-20T01:11:56.959Z,0
2017-06-20T01:13:08.583Z,0
2017-06-20T01:14:20.830Z,0
2017-06-20T01:15:33.354Z,0
2017-06-20T01:16:45.873Z,0
2017-06-20T01:17:58.117Z,0
2017-06-20T01:19:10.382Z,0
2017-06-20T01:20:22.924Z,0
2017-06-20T01:21:35.452Z,0
2017-06-20T01:22:47.698Z,0
2017-06-20T01:23:59.941Z,0
2017-06-20T01:25:12.518Z,0
2017-06-20T01:26:24.437Z,0
2017-06-20T01:27:36.662Z,0
2017-06-20T01:28:49.181Z,0
2017-06-20T01:30:01.728Z,0
2017-06-20T01:31:14.274Z,0
2017-06-20T01:32:26.508Z,0
2017-06-20T01:33:38.757Z,0
2017-06-20T01:34:51.283Z,0
2017-06-20T01:36:03.834Z,0
2017-06-20T01:37:16.373Z,0
2017-06-20T01:38:29.199Z,0
2017-06-20T01:39:41.419Z,0
2017-06-20T01:40:53.982Z,0
2017-06-20T01:42:06.237Z,0
2017-06-20T01:43:18.474Z,0
2017-06-20T01:44:31.003Z,0
2017-06-20T01:45:43.528Z,0
2017-06-20T01:46:55.766Z,0
2017-06-20T01:48:08.007Z,0
2017-06-20T01:49:20.487Z,0
2017-06-20T01:50:33.046Z,0
2017-06-20T01:51:45.275Z,0
2017-06-20T01:52:57.813Z,0
2017-06-20T01:54:10.316Z,0
2017-06-20T01:55:22.863Z,0
2017-06-20T01:56:35.404Z,0
2017-06-20T01:57:47.951Z,0
2017-06-20T01:59:00.193Z,0
2017-06-20T02:00:12.724Z,0
2017-06-20T02:01:25.288Z,0
2017-06-20T02:02:37.538Z,0
2017-06-20T02:03:49.762Z,0
2017-06-20T02:05:01.980Z,0
2017-06-20T02:06:14.179Z,0
2017-06-20T02:07:26.702Z,0
2017-06-20T02:08:38.920Z,0
2017-06-20T02:09:50.867Z,0
2017-06-20T02:11:02.811Z,0
2017-06-20T02:12:15.059Z,0
2017-06-20T02:13:27.576Z,0
2017-06-20T02:14:39.815Z,0
2017-06-20T02:15:52.339Z,0
2017-06-20T02:17:04.847Z,0
2017-06-20T02:18:17.387Z,0
2017-06-20T02:19:29.624Z,0
2017-06-20T02:20:42.152Z,0
2017-06-20T02:21:54.657Z,0
2017-06-20T02:23:07.171Z,0
2017-06-20T02:24:19.693Z,0
2017-06-20T02:25:32.274Z,0
2017-06-20T02:26:43.901Z,0
2017-06-20T02:27:56.147Z,0
2017-06-20T02:29:08.074Z,0
2017-06-20T02:30:20.648Z,0
2017-06-20T02:31:32.890Z,0
2017-06-20T02:32:45.429Z,0
2017-06-20T02:33:57.978Z,0
2017-06-20T02:35:10.205Z,0
2017-06-20T02:36:22.741Z,5
2017-06-20T02:37:34.949Z,5
2017-06-20T02:38:47.469Z,5
2017-06-20T02:39:59.987Z,5
2017-06-20T02:41:12.529Z,5
2017-06-20T02:42:24.747Z,5
2017-06-20T02:43:37.574Z,5
2017-06-20T02:44:50.114Z,5
2017-06-20T02:46:02.340Z,5
2017-06-20T02:47:14.581Z,10
2017-06-20T02:48:26.832Z,10
2017-06-20T02:49:39.329Z,10
2017-06-20T02:50:51.852Z,10
2017-06-20T02:52:04.391Z,10
2017-06-20T02:53:16.916Z,15
2017-06-20T02:54:29.440Z,15
2017-06-20T02:55:41.979Z,15
2017-06-20T02:56:54.504Z,15
2017-06-20T02:58:07.029Z,20
2017-06-20T02:59:19.563Z,20
2017-06-20T03:00:32.095Z,20
2017-06-20T03:01:44.017Z,20
2017-06-20T03:02:56.554Z,20
2017-06-20T03:04:09.085Z,25
2017-06-20T03:05:21.625Z,25
2017-06-20T03:06:33.874Z,25
2017-06-20T03:07:46.408Z,30
2017-06-20T03:08:58.641Z,30
2017-06-20T03:10:11.460Z,30
2017-06-20T03:11:23.655Z,30
2017-06-20T03:12:36.193Z,35
2017-06-20T03:13:48.723Z,35
2017-06-20T03:15:00.923Z,35
2017-06-20T03:16:13.168Z,40
2017-06-20T03:17:25.678Z,40
2017-06-20T03:18:38.198Z,40
2017-06-20T03:19:50.751Z,45
2017-06-20T03:21:03.575Z,45
2017-06-20T03:22:15.468Z,45
2017-06-20T03:23:28.014Z,50
2017-06-20T03:24:40.258Z,50
2017-06-20T03:25:52.805Z,50
2017-06-20T03:27:05.328Z,50
2017-06-20T03:28:17.846Z,55
2017-06-20T03:29:29.811Z,55
2017-06-20T03:30:42.318Z,55
2017-06-20T03:31:54.835Z,60
2017-06-20T03:33:07.379Z,60
2017-06-20T03:34:19.581Z,60
2017-06-20T03:35:32.122Z,65
2017-06-20T03:36:44.019Z,65
2017-06-20T03:37:56.561Z,65
2017-06-20T03:39:09.104Z,65
2017-06-20T03:40:21.353Z,70
2017-06-20T03:41:33.882Z,70
2017-06-20T03:42:46.428Z,75
2017-06-20T03:43:58.686Z,75
2017-06-20T03:45:10.593Z,75
2017-06-20T03:46:22.815Z,75
2017-06-20T03:47:35.336Z,80
2017-06-20T03:48:47.883Z,80
2017-06-20T03:50:00.422Z,85
2017-06-20T03:51:12.648Z,85
2017-06-20T03:52:25.166Z,85
2017-06-20T03:53:37.415Z,85
2017-06-20T03:54:49.936Z,85
2017-06-20T03:56:02.474Z,90
2017-06-20T03:57:14.992Z,90
2017-06-20T03:58:27.524Z,90
2017-06-20T03:59:40.034Z,95
2017-06-20T04:00:52.564Z,95
2017-06-20T04:02:05.133Z,95
2017-06-20T04:03:17.654Z,95
2017-06-20T04:04:29.878Z,100
2017-06-20T04:05:42.413Z,100
2017-06-20T04:06:54.647Z,100
2017-06-20T04:08:06.884Z,105
2017-06-20T04:09:19.411Z,105
2017-06-20T04:10:32.236Z,110
2017-06-20T04:11:44.478Z,110
2017-06-20T04:12:56.717Z,110
2017-06-20T04:14:09.264Z,115
2017-06-20T04:15:21.191Z,115
2017-06-20T04:16:33.743Z,120
2017-06-20T04:17:46.287Z,120
2017-06-20T04:18:58.527Z,120
2017-06-20T04:20:10.480Z,125
2017-06-20T04:21:22.972Z,125
2017-06-20T04:22:35.507Z,125
2017-06-20T04:23:48.039Z,130
2017-06-20T04:24:59.985Z,130
2017-06-20T04:26:12.554Z,135
2017-06-20T04:27:25.091Z,135
2017-06-20T04:28:37.622Z,140
2017-06-20T04:29:50.155Z,145
2017-06-20T04:31:02.087Z,145
2017-06-20T04:32:14.325Z,150
2017-06-20T04:33:26.569Z,145
2017-06-20T04:34:38.501Z,150
2017-06-20T04:35:51.044Z,150
2017-06-20T04:37:03.564Z,150
2017-06-20T04:38:16.132Z,155
2017-06-20T04:39:28.360Z,150
2017-06-20T04:40:40.898Z,155
2017-06-20T04:41:53.447Z,155
2017-06-20T04:43:05.373Z,155
2017-06-20T04:44:17.865Z,155
2017-06-20T04:45:30.086Z,155
2017-06-20T04:46:42.632Z,155
2017-06-20T04:47:55.170Z,155
2017-06-20T04:49:07.719Z,155
2017-06-20T04:50:20.276Z,155
2017-06-20T04:51:32.494Z,155
2017-06-20T04:52:44.132Z,155
2017-06-20T04:53:56.675Z,155
2017-06-20T04:55:08.923Z,160
2017-06-20T04:56:21.153Z,165
2017-06-20T04:57:33.674Z,165
2017-06-20T04:58:46.193Z,170
2017-06-20T04:59:58.413Z,170
2017-06-20T05:01:10.959Z,175
2017-06-20T05:02:23.479Z,180
2017-06-20T05:03:35.392Z,185
2017-06-20T05:04:47.605Z,195
2017-06-20T05:06:00.167Z,205
2017-06-20T05:07:12.712Z,215
2017-06-20T05:08:25.301Z,235
2017-06-20T05:09:37.551Z,250
2017-06-20T05:10:49.775Z,250
2017-06-20T05:12:02.325Z,265
2017-06-20T05:13:14.884Z,295
2017-06-20T05:14:27.390Z,275
2017-06-20T05:15:39.312Z,280
2017-06-20T05:16:51.551Z,290
2017-06-20T05:18:04.105Z,315
2017-06-20T05:19:16.371Z,350
2017-06-20T05:20:28.909Z,360
2017-06-20T05:21:40.843Z,365
2017-06-20T05:22:53.361Z,350
2017-06-20T05:24:05.563Z,345
2017-06-20T05:25:17.528Z,360
2017-06-20T05:26:29.756Z,410
2017-06-20T05:27:42.319Z,425
2017-06-20T05:28:54.866Z,395
2017-06-20T05:30:07.088Z,390
2017-06-20T05:31:19.636Z,420
2017-06-20T05:32:31.895Z,365
2017-06-20T05:33:44.123Z,340
2017-06-20T05:34:56.644Z,330
2017-06-20T05:36:09.193Z,330
2017-06-20T05:37:21.740Z,345
2017-06-20T05:38:34.285Z,365
2017-06-20T05:39:46.830Z,390
2017-06-20T05:40:58.794Z,380
2017-06-20T05:42:10.724Z,355
2017-06-20T05:43:23.241Z,365
2017-06-20T05:44:35.207Z,360
2017-06-20T05:45:47.132Z,355
2017-06-20T05:46:59.653Z,355
2017-06-20T05:48:12.224Z,340
2017-06-20T05:49:24.747Z,335
2017-06-20T05:50:36.708Z,330
2017-06-20T05:51:49.258Z,330
2017-06-20T05:53:01.486Z,340
2017-06-20T05:54:13.728Z,340
2017-06-20T05:55:25.653Z,340
2017-06-20T05:56:37.602Z,345
2017-06-20T05:57:50.141Z,350
2017-06-20T05:59:02.915Z,370
2017-06-20T06:00:15.454Z,395
2017-06-20T06:01:28.006Z,390
2017-06-20T06:02:39.650Z,395
2017-06-20T06:03:52.179Z,395
2017-06-20T06:05:04.738Z,375
2017-06-20T06:06:17.266Z,380
2017-06-20T06:07:29.511Z,400
2017-06-20T06:08:42.030Z,420
2017-06-20T06:09:54.571Z,415
2017-06-20T06:11:06.778Z,420
2017-06-20T06:12:19.038Z,400
2017-06-20T06:13:31.585Z,355
2017-06-20T06:14:43.527Z,345
2017-06-20T06:15:56.055Z,370
2017-06-20T06:17:08.300Z,415
2017-06-20T06:18:20.563Z,470
2017-06-20T06:19:32.199Z,510
2017-06-20T06:20:44.967Z,610
2017-06-20T06:21:57.214Z,630
2017-06-20T06:23:09.760Z,790
2017-06-20T06:24:22.321Z,810
2017-06-20T06:25:34.569Z,830
2017-06-20T06:26:46.839Z,755
2017-06-20T06:27:59.085Z,780
2017-06-20T06:29:11.302Z,840
2017-06-20T06:30:23.835Z,780
2017-06-20T06:31:35.806Z,865
2017-06-20T06:32:48.365Z,945
2017-06-20T06:34:00.926Z,975
2017-06-20T06:35:13.190Z,975
2017-06-20T06:36:25.738Z,890
2017-06-20T06:37:37.699Z,960
2017-06-20T06:38:49.928Z,990
2017-06-20T06:40:02.504Z,980
2017-06-20T06:41:14.165Z,950
2017-06-20T06:42:26.412Z,1020
2017-06-20T06:43:38.939Z,1010
2017-06-20T06:44:51.506Z,1000
2017-06-20T06:46:03.752Z,1060
2017-06-20T06:47:15.402Z,1085
2017-06-20T06:48:27.662Z,1080
2017-06-20T06:49:39.310Z,1085
2017-06-20T06:50:51.854Z,1070
2017-06-20T06:52:04.408Z,975
2017-06-20T06:53:16.630Z,1105
2017-06-20T06:54:29.176Z,970
2017-06-20T06:55:41.724Z,1010
2017-06-20T06:56:53.997Z,1065
2017-06-20T06:58:06.541Z,1035
2017-06-20T06:59:19.064Z,965
2017-06-20T07:00:30.727Z,920
2017-06-20T07:01:43.275Z,1050
2017-06-20T07:02:55.841Z,1020
2017-06-20T07:04:08.659Z,1055
2017-06-20T07:05:20.917Z,1020
2017-06-20T07:06:33.163Z,1125
2017-06-20T07:07:45.734Z,1185
2017-06-20T07:08:58.277Z,1100
2017-06-20T07:10:10.539Z,1120
2017-06-20T07:11:23.096Z,1245
2017-06-20T07:12:35.060Z,1245
2017-06-20T07:13:47.610Z,1310
2017-06-20T07:15:00.135Z,1295
2017-06-20T07:16:12.379Z,1360
2017-06-20T07:17:24.924Z,1385
2017-06-20T07:18:36.865Z,1405
2017-06-20T07:19:49.418Z,1380
2017-06-20T07:21:01.696Z,1430
2017-06-20T07:22:14.238Z,1380
2017-06-20T07:23:26.522Z,1350
2017-06-20T07:24:39.073Z,1420
2017-06-20T07:25:51.323Z,1450
2017-06-20T07:27:03.585Z,1490
2017-06-20T07:28:16.131Z,1445
2017-06-20T07:29:28.709Z,1475
2017-06-20T07:30:40.955Z,1545
2017-06-20T07:31:53.566Z,1335
2017-06-20T07:33:05.569Z,1390
2017-06-20T07:34:17.840Z,1565
2017-06-20T07:35:30.389Z,1540
2017-06-20T07:36:42.657Z,1530
2017-06-20T07:37:55.221Z,1500
2017-06-20T07:39:07.477Z,1535
2017-06-20T07:40:19.747Z,1525
2017-06-20T07:41:32.307Z,1550
2017-06-20T07:42:44.565Z,1590
2017-06-20T07:43:57.112Z,1680
2017-06-20T07:45:09.680Z,1715
2017-06-20T07:46:21.902Z,1700
2017-06-20T07:47:34.149Z,1560
2017-06-20T07:48:46.737Z,1650
2017-06-20T07:49:58.670Z,1755
2017-06-20T07:51:11.250Z,1845
2017-06-20T07:52:23.535Z,1805
2017-06-20T07:53:35.792Z,1735
2017-06-20T07:54:47.749Z,1620
2017-06-20T07:56:00.337Z,1830
2017-06-20T07:57:12.892Z,1695
2017-06-20T07:58:25.428Z,1690
2017-06-20T07:59:37.712Z,1730
2017-06-20T08:00:50.267Z,1655
2017-06-20T08:02:02.225Z,1660
2017-06-20T08:03:14.787Z,1820
2017-06-20T08:04:27.366Z,1910
2017-06-20T08:05:39.951Z,1860
2017-06-20T08:06:52.229Z,1955
2017-06-20T08:08:04.770Z,1845
2017-06-20T08:09:16.725Z,1875
2017-06-20T08:10:28.696Z,1970
2017-06-20T08:11:41.256Z,1915
2017-06-20T08:12:53.852Z,2005
2017-06-20T08:14:06.123Z,2035
2017-06-20T08:15:18.676Z,2065
2017-06-20T08:16:30.947Z,2165
2017-06-20T08:17:43.197Z,2150
2017-06-20T08:18:55.781Z,2035
2017-06-20T08:20:07.127Z,2045
2017-06-20T08:21:19.686Z,2075
2017-06-20T08:22:32.276Z,2135
2017-06-20T08:23:44.842Z,2095
2017-06-20T08:24:57.068Z,2195
2017-06-20T08:26:09.632Z,2255
2017-06-20T08:27:22.188Z,2285
2017-06-20T08:28:34.130Z,2200
2017-06-20T08:29:46.352Z,2115
2017-06-20T08:30:58.906Z,2250
2017-06-20T08:32:11.197Z,2290
2017-06-20T08:33:23.757Z,2275
2017-06-20T08:34:36.316Z,2225
2017-06-20T08:35:48.886Z,2305
2017-06-20T08:37:01.474Z,2285
2017-06-20T08:38:13.444Z,2340
2017-06-20T08:39:25.698Z,2285
2017-06-20T08:40:37.357Z,2015
2017-06-20T08:41:48.718Z,2180
2017-06-20T08:43:00.978Z,2350
2017-06-20T08:44:13.234Z,2250
2017-06-20T08:45:25.204Z,2195
2017-06-20T08:46:37.791Z,2085
2017-06-20T08:47:50.041Z,1960
2017-06-20T08:49:02.005Z,1840
2017-06-20T08:50:13.963Z,1885
2017-06-20T08:51:26.547Z,2100
2017-06-20T08:52:38.528Z,2280
2017-06-20T08:53:50.775Z,2425
2017-06-20T08:55:02.442Z,2385
2017-06-20T08:56:14.708Z,2465
2017-06-20T08:57:26.938Z,2515
2017-06-20T08:58:39.506Z,2390
2017-06-20T08:59:51.752Z,2255
2017-06-20T09:01:04.274Z,2155
2017-06-20T09:02:16.547Z,1115
2017-06-20T09:03:28.809Z,2190
2017-06-20T09:04:41.360Z,2250
2017-06-20T09:05:53.625Z,2440
2017-06-20T09:07:05.620Z,2345
2017-06-20T09:08:17.596Z,2455
2017-06-20T09:09:30.160Z,2235
2017-06-20T09:10:42.408Z,2535
2017-06-20T09:11:54.959Z,2395
2017-06-20T09:13:07.507Z,805
2017-06-20T09:14:20.319Z,815
2017-06-20T09:15:31.955Z,1920
2017-06-20T09:16:44.221Z,690
2017-06-20T09:17:56.163Z,755
2017-06-20T09:19:08.713Z,920
2017-06-20T09:20:20.982Z,2580
2017-06-20T09:21:33.244Z,2720
2017-06-20T09:22:45.201Z,2610
2017-06-20T09:23:57.469Z,2700
2017-06-20T09:25:09.432Z,2650
2017-06-20T09:26:22.007Z,2980
2017-06-20T09:27:33.978Z,2930
2017-06-20T09:28:46.244Z,2985
2017-06-20T09:29:57.898Z,3090
2017-06-20T09:31:10.461Z,2980
2017-06-20T09:32:23.042Z,3125
2017-06-20T09:33:34.989Z,2840
2017-06-20T09:34:47.235Z,2750
2017-06-20T09:35:59.508Z,2620
2017-06-20T09:37:12.075Z,2470
2017-06-20T09:38:24.023Z,2355
2017-06-20T09:39:35.697Z,2580
2017-06-20T09:40:47.957Z,2540
2017-06-20T09:42:00.228Z,2555
2017-06-20T09:43:12.472Z,2935
2017-06-20T09:44:25.050Z,2880
2017-06-20T09:45:37.300Z,2605
2017-06-20T09:46:48.387Z,2580
2017-06-20T09:48:00.929Z,2475
2017-06-20T09:49:13.198Z,2710
2017-06-20T09:50:25.204Z,2965
2017-06-20T09:51:37.151Z,3065
2017-06-20T09:52:49.121Z,3000
2017-06-20T09:54:01.387Z,1165
2017-06-20T09:55:13.638Z,920
2017-06-20T09:56:26.214Z,885
2017-06-20T09:57:39.031Z,860
2017-06-20T09:58:51.275Z,1125
2017-06-20T10:00:03.240Z,1155
2017-06-20T10:01:15.822Z,2780
2017-06-20T10:02:28.092Z,2890
2017-06-20T10:03:40.663Z,2935
2017-06-20T10:04:53.252Z,2845
2017-06-20T10:06:05.492Z,2660
2017-06-20T10:07:17.724Z,935
2017-06-20T10:08:29.646Z,1145
2017-06-20T10:09:42.191Z,2805
2017-06-20T10:10:54.781Z,1070
2017-06-20T10:12:07.026Z,2625
2017-06-20T10:13:19.582Z,2840
2017-06-20T10:14:32.148Z,3050
2017-06-20T10:15:44.401Z,3360
2017-06-20T10:16:56.957Z,3090
2017-06-20T10:18:09.210Z,3025
2017-06-20T10:19:21.473Z,3000
2017-06-20T10:20:33.747Z,2855
2017-06-20T10:21:46.015Z,3015
2017-06-20T10:22:58.589Z,3170
2017-06-20T10:24:11.139Z,3140
2017-06-20T10:25:23.689Z,3025
2017-06-20T10:26:35.633Z,2885
2017-06-20T10:27:48.197Z,945
2017-06-20T10:29:00.429Z,750
2017-06-20T10:30:12.952Z,815
2017-06-20T10:31:25.492Z,875
2017-06-20T10:32:37.453Z,2215
2017-06-20T10:33:49.709Z,900
2017-06-20T10:35:01.931Z,660
2017-06-20T10:36:14.522Z,615
2017-06-20T10:37:27.097Z,650
2017-06-20T10:38:39.365Z,710
2017-06-20T10:39:51.919Z,895
2017-06-20T10:41:04.485Z,3305
2017-06-20T10:42:16.747Z,3225
2017-06-20T10:43:28.703Z,3215
2017-06-20T10:44:41.266Z,3330
2017-06-20T10:45:53.516Z,2720
2017-06-20T10:47:05.783Z,2630
2017-06-20T10:48:18.350Z,3215
2017-06-20T10:49:30.899Z,2850
2017-06-20T10:50:42.850Z,2865
2017-06-20T10:51:55.399Z,3230
2017-06-20T10:53:07.642Z,3040
2017-06-20T10:54:19.880Z,3270
2017-06-20T10:55:32.137Z,3140
2017-06-20T10:56:44.722Z,3115
2017-06-20T10:57:57.292Z,925
2017-06-20T10:59:09.825Z,2390
2017-06-20T11:00:22.388Z,3155
2017-06-20T11:01:34.042Z,3300
2017-06-20T11:02:46.587Z,3350
2017-06-20T11:03:58.539Z,3165
2017-06-20T11:05:10.804Z,3310
2017-06-20T11:06:23.376Z,3275
2017-06-20T11:07:35.643Z,3020
2017-06-20T11:08:48.193Z,3135
2017-06-20T11:10:00.788Z,3160
2017-06-20T11:11:12.751Z,3065
2017-06-20T11:12:25.322Z,3055
2017-06-20T11:13:37.854Z,2820
2017-06-20T11:14:50.421Z,2705
2017-06-20T11:16:03.007Z,2705
2017-06-20T11:17:15.589Z,2515
2017-06-20T11:18:28.406Z,900
2017-06-20T11:19:40.629Z,2165
2017-06-20T11:20:52.903Z,2525
2017-06-20T11:22:05.485Z,750
2017-06-20T11:23:18.042Z,2210
2017-06-20T11:24:30.616Z,2240
2017-06-20T11:25:42.881Z,2565
2017-06-20T11:26:54.827Z,1210
2017-06-20T11:28:07.404Z,830
2017-06-20T11:29:19.986Z,740
2017-06-20T11:30:32.563Z,705
2017-06-20T11:31:45.114Z,1930
2017-06-20T11:32:57.386Z,1930
2017-06-20T11:34:09.931Z,2010
2017-06-20T11:35:22.194Z,2230
2017-06-20T11:36:34.766Z,2135
2017-06-20T11:37:47.318Z,830
2017-06-20T11:38:59.904Z,670
2017-06-20T11:40:11.578Z,575
2017-06-20T11:41:23.828Z,620
2017-06-20T11:42:36.057Z,665
2017-06-20T11:43:48.623Z,730
2017-06-20T11:45:00.893Z,750
2017-06-20T11:46:13.128Z,830
2017-06-20T11:47:25.392Z,945
2017-06-20T11:48:38.010Z,1840
2017-06-20T11:49:50.567Z,1945
2017-06-20T11:51:02.821Z,1995
2017-06-20T11:52:15.062Z,2175
2017-06-20T11:53:27.591Z,2645
2017-06-20T11:54:40.188Z,3495
2017-06-20T11:55:52.759Z,4290
2017-06-20T11:57:05.021Z,4425
2017-06-20T11:58:17.598Z,3760
2017-06-20T11:59:30.165Z,3455
2017-06-20T12:00:42.714Z,3520
2017-06-20T12:01:55.280Z,3505
2017-06-20T12:03:07.849Z,3835
2017-06-20T12:04:20.126Z,3990
2017-06-20T12:05:32.375Z,3640
2017-06-20T12:06:44.919Z,3855
2017-06-20T12:07:56.881Z,3135
2017-06-20T12:09:09.134Z,3380
2017-06-20T12:10:21.383Z,3585
2017-06-20T12:11:33.629Z,3325
2017-06-20T12:12:45.888Z,2970
2017-06-20T12:13:57.861Z,2940
2017-06-20T12:15:10.143Z,3195
2017-06-20T12:16:22.130Z,2980
2017-06-20T12:17:34.674Z,2900
2017-06-20T12:18:47.501Z,2975
2017-06-20T12:19:59.769Z,3035
2017-06-20T12:21:12.321Z,2785
2017-06-20T12:22:24.583Z,2895
2017-06-20T12:23:37.113Z,3275
2017-06-20T12:24:49.375Z,3010
2017-06-20T12:26:01.928Z,2715
2017-06-20T12:27:14.494Z,2665
2017-06-20T12:28:27.049Z,3185
2017-06-20T12:29:39.607Z,3305
2017-06-20T12:30:52.140Z,3075
2017-06-20T12:32:04.090Z,885
2017-06-20T12:33:16.371Z,780
2017-06-20T12:34:28.603Z,3390
2017-06-20T12:35:41.175Z,3805
2017-06-20T12:36:53.420Z,3805
2017-06-20T12:38:05.964Z,3865
2017-06-20T12:39:18.243Z,3990
2017-06-20T12:40:30.803Z,4035
2017-06-20T12:41:43.353Z,4005
2017-06-20T12:42:55.591Z,4175
2017-06-20T12:44:08.173Z,4335
2017-06-20T12:45:20.714Z,4460
2017-06-20T12:46:33.250Z,4190
2017-06-20T12:47:45.813Z,4315
2017-06-20T12:48:58.353Z,4055
2017-06-20T12:50:10.915Z,4255
2017-06-20T12:51:22.866Z,4350
2017-06-20T12:52:35.437Z,3600
2017-06-20T12:53:48.015Z,3650
2017-06-20T12:55:00.561Z,3790
2017-06-20T12:56:12.846Z,4210
2017-06-20T12:57:25.417Z,4025
2017-06-20T12:58:37.644Z,3990
2017-06-20T12:59:49.916Z,4150
2017-06-20T13:01:02.502Z,4035
2017-06-20T13:02:15.076Z,3950
2017-06-20T13:03:27.629Z,4135
2017-06-20T13:04:40.196Z,3820
2017-06-20T13:05:52.467Z,4320
2017-06-20T13:07:04.714Z,4485
2017-06-20T13:08:17.276Z,4495
2017-06-20T13:09:29.829Z,4615
2017-06-20T13:10:42.098Z,4860
2017-06-20T13:11:54.375Z,4440
2017-06-20T13:13:06.621Z,4220
2017-06-20T13:14:18.894Z,4165
2017-06-20T13:15:31.462Z,4110
2017-06-20T13:16:44.008Z,3685
2017-06-20T13:17:55.972Z,3570
2017-06-20T13:19:08.251Z,925
2017-06-20T13:20:20.221Z,3745
2017-06-20T13:21:32.482Z,3625
2017-06-20T13:22:44.742Z,3970
2017-06-20T13:23:57.306Z,3890
2017-06-20T13:25:09.844Z,3615
2017-06-20T13:26:22.401Z,1090
2017-06-20T13:27:34.986Z,4040
2017-06-20T13:28:46.947Z,4025
2017-06-20T13:29:58.932Z,3915
2017-06-20T13:31:11.211Z,3910
2017-06-20T13:32:23.757Z,4025
2017-06-20T13:33:36.029Z,3840
2017-06-20T13:34:47.994Z,4380
2017-06-20T13:36:00.541Z,4470
2017-06-20T13:37:12.816Z,4400
2017-06-20T13:38:24.760Z,3915
2017-06-20T13:39:36.744Z,1855
2017-06-20T13:40:48.992Z,1170
2017-06-20T13:42:01.263Z,4720
2017-06-20T13:43:13.512Z,4220
2017-06-20T13:44:26.069Z,4410
2017-06-20T13:45:38.337Z,4065
2017-06-20T13:46:50.605Z,3830
2017-06-20T13:48:03.174Z,4035
2017-06-20T13:49:15.438Z,4270
2017-06-20T13:50:27.691Z,4150
2017-06-20T13:51:39.964Z,4140
2017-06-20T13:52:51.911Z,3825
2017-06-20T13:54:04.172Z,3920
2017-06-20T13:55:16.723Z,3960
2017-06-20T13:56:28.955Z,895
2017-06-20T13:57:40.616Z,1965
2017-06-20T13:58:53.180Z,1400
2017-06-20T14:00:05.766Z,3255
2017-06-20T14:01:18.308Z,3055
2017-06-20T14:02:30.556Z,2970
2017-06-20T14:03:42.829Z,2580
2017-06-20T14:04:55.388Z,2520
2017-06-20T14:06:07.663Z,2695
2017-06-20T14:07:20.187Z,2635
2017-06-20T14:08:32.410Z,2895
2017-06-20T14:09:44.659Z,3375
2017-06-20T14:10:56.314Z,3150
2017-06-20T14:12:08.270Z,2995
2017-06-20T14:13:20.534Z,3270
2017-06-20T14:14:33.063Z,3645
2017-06-20T14:15:45.623Z,3510
2017-06-20T14:16:58.176Z,3675
2017-06-20T14:18:10.139Z,3205
2017-06-20T14:19:22.713Z,3360
2017-06-20T14:20:34.969Z,3290
2017-06-20T14:21:47.232Z,2640
2017-06-20T14:22:59.485Z,2575
2017-06-20T14:24:12.033Z,2425
2017-06-20T14:25:24.600Z,2655
2017-06-20T14:26:37.164Z,2765
2017-06-20T14:27:49.742Z,3095
2017-06-20T14:29:02.078Z,3050
2017-06-20T14:30:14.631Z,3335
2017-06-20T14:31:27.208Z,3340
2017-06-20T14:32:39.466Z,2705
2017-06-20T14:33:52.044Z,2520
2017-06-20T14:35:04.636Z,2495
2017-06-20T14:36:17.188Z,1920
2017-06-20T14:37:29.132Z,1855
2017-06-20T14:38:41.681Z,2045
2017-06-20T14:39:54.494Z,1735
2017-06-20T14:41:07.065Z,1675
2017-06-20T14:42:19.015Z,1530
2017-06-20T14:43:31.561Z,1550
2017-06-20T14:44:44.132Z,830
2017-06-20T14:45:56.382Z,1480
2017-06-20T14:47:08.928Z,920
2017-06-20T14:48:21.470Z,1390
2017-06-20T14:49:33.437Z,1485
2017-06-20T14:50:45.687Z,1025
2017-06-20T14:51:58.250Z,740
2017-06-20T14:53:10.832Z,790
2017-06-20T14:54:23.073Z,760
2017-06-20T14:55:35.305Z,745
2017-06-20T14:56:47.566Z,730
2017-06-20T14:58:00.097Z,690
2017-06-20T14:59:12.357Z,685
2017-06-20T15:00:23.986Z,685
2017-06-20T15:01:36.800Z,665
2017-06-20T15:02:49.380Z,640
2017-06-20T15:04:01.918Z,620
2017-06-20T15:05:14.183Z,605
2017-06-20T15:06:26.408Z,595
2017-06-20T15:07:38.955Z,580
2017-06-20T15:08:51.501Z,590
2017-06-20T15:10:03.463Z,595
2017-06-20T15:11:15.093Z,600
2017-06-20T15:12:27.341Z,615
2017-06-20T15:13:39.612Z,620
2017-06-20T15:14:52.158Z,605
2017-06-20T15:16:04.704Z,605
2017-06-20T15:17:16.655Z,600
2017-06-20T15:18:28.922Z,595
2017-06-20T15:19:41.164Z,600
2017-06-20T15:20:53.709Z,605
2017-06-20T15:22:06.247Z,620
2017-06-20T15:23:18.478Z,640
2017-06-20T15:24:30.127Z,640
2017-06-20T15:25:42.690Z,650
2017-06-20T15:26:54.634Z,630
2017-06-20T15:28:06.281Z,615
2017-06-20T15:29:18.810Z,620
2017-06-20T15:30:31.372Z,630
2017-06-20T15:31:43.643Z,610
2017-06-20T15:32:55.897Z,615
2017-06-20T15:34:08.443Z,605
2017-06-20T15:35:20.391Z,605
2017-06-20T15:36:32.934Z,610
2017-06-20T15:37:45.206Z,620
2017-06-20T15:38:57.753Z,940
2017-06-20T15:40:10.026Z,840
2017-06-20T15:41:22.565Z,980
2017-06-20T15:42:35.089Z,975
2017-06-20T15:43:47.624Z,820
2017-06-20T15:44:59.831Z,635
2017-06-20T15:46:12.399Z,615
2017-06-20T15:47:24.666Z,600
2017-06-20T15:48:37.236Z,550
2017-06-20T15:49:49.778Z,520
2017-06-20T15:51:02.335Z,500
2017-06-20T15:52:14.878Z,470
2017-06-20T15:53:27.454Z,460
2017-06-20T15:54:40.020Z,440
2017-06-20T15:55:52.544Z,440
2017-06-20T15:57:05.091Z,435
2017-06-20T15:58:17.652Z,435
2017-06-20T15:59:29.900Z,435
2017-06-20T16:00:42.425Z,440
2017-06-20T16:01:54.674Z,445
2017-06-20T16:03:07.233Z,460
2017-06-20T16:04:18.870Z,465
2017-06-20T16:05:31.136Z,465
2017-06-20T16:06:43.697Z,470
2017-06-20T16:07:55.903Z,470
2017-06-20T16:09:08.146Z,465
2017-06-20T16:10:20.697Z,465
2017-06-20T16:11:32.615Z,465
2017-06-20T16:12:44.562Z,465
2017-06-20T16:13:56.554Z,465
2017-06-20T16:15:09.095Z,470
2017-06-20T16:16:21.342Z,465
2017-06-20T16:17:34.122Z,465
2017-06-20T16:18:46.689Z,455
2017-06-20T16:19:58.910Z,450
2017-06-20T16:21:11.134Z,445
2017-06-20T16:22:23.398Z,445
2017-06-20T16:23:35.925Z,445
2017-06-20T16:24:48.468Z,440
2017-06-20T16:26:01.006Z,445
2017-06-20T16:27:13.564Z,445
2017-06-20T16:28:26.125Z,440
2017-06-20T16:29:38.670Z,440
2017-06-20T16:30:51.198Z,430
2017-06-20T16:32:03.695Z,420
2017-06-20T16:33:16.221Z,410
2017-06-20T16:34:28.814Z,400
2017-06-20T16:35:41.377Z,395